createdAt,value
2022-12-27T00:01:38.748Z,2.30
2022-12-27T00:04:06.831Z,2.00
2022-12-27T00:06:34.672Z,2.87
2022-12-27T00:09:03.245Z,1.97
2022-12-27T00:11:31.411Z,1.77
2022-12-27T00:14:00.398Z,2.17
2022-12-27T00:16:28.555Z,1.90
2022-12-27T00:18:58.350Z,1.40
2022-12-27T00:21:26.748Z,1.80
2022-12-27T00:23:56.488Z,1.70
2022-12-27T00:26:26.445Z,2.10
2022-12-27T00:28:55.088Z,2.37
2022-12-27T00:31:24.580Z,1.70
2022-12-27T00:33:54.608Z,2.03
2022-12-27T00:36:25.634Z,1.43
2022-12-27T00:38:54.770Z,1.97
2022-12-27T00:41:22.666Z,1.60
2022-12-27T00:43:50.880Z,1.93
2022-12-27T00:46:19.250Z,1.50
2022-12-27T00:48:47.592Z,1.87
2022-12-27T00:51:17.058Z,0.63
2022-12-27T00:53:46.743Z,1.23
2022-12-27T00:56:19.001Z,1.20
2022-12-27T00:58:46.976Z,1.30
2022-12-27T01:01:19.361Z,1.37
2022-12-27T01:03:47.502Z,1.60
2022-12-27T01:06:17.113Z,1.77
2022-12-27T01:08:47.085Z,2.53
2022-12-27T01:11:16.395Z,2.63
2022-12-27T01:13:45.394Z,1.80
2022-12-27T01:16:15.648Z,2.33
2022-12-27T01:18:43.903Z,2.30
2022-12-27T01:21:14.363Z,2.10
2022-12-27T01:23:42.974Z,2.10
2022-12-27T01:26:15.631Z,2.80
2022-12-27T01:28:43.540Z,1.87
2022-12-27T01:31:13.598Z,2.03
2022-12-27T01:33:41.553Z,2.67
2022-12-27T01:36:14.671Z,2.93
2022-12-27T01:38:43.685Z,1.33
2022-12-27T01:41:34.907Z,1.50
2022-12-27T01:44:02.882Z,2.07
2022-12-27T01:46:31.763Z,1.87
2022-12-27T01:48:59.725Z,1.97
2022-12-27T01:51:27.928Z,1.50
2022-12-27T01:53:55.853Z,2.10
2022-12-27T01:56:30.848Z,2.00
2022-12-27T01:59:03.928Z,1.23
2022-12-27T02:01:37.377Z,2.67
2022-12-27T02:04:08.647Z,1.60
2022-12-27T02:06:39.501Z,2.07
2022-12-27T02:09:14.954Z,2.30
2022-12-27T02:11:53.117Z,1.90
2022-12-27T02:14:28.022Z,1.97
2022-12-27T02:16:57.937Z,1.60
2022-12-27T02:19:34.501Z,1.70
2022-12-27T02:22:30.304Z,1.93
2022-12-27T02:25:16.189Z,1.87
2022-12-27T02:28:03.254Z,2.10
2022-12-27T02:30:34.475Z,1.90
2022-12-27T02:33:05.332Z,1.87
2022-12-27T02:35:37.595Z,1.73
2022-12-27T02:38:11.455Z,1.60
2022-12-27T02:40:59.169Z,1.47
2022-12-27T02:43:45.496Z,2.10
2022-12-27T02:46:36.687Z,1.87
2022-12-27T02:49:22.190Z,1.87
2022-12-27T02:52:21.272Z,1.80
2022-12-27T02:55:10.086Z,1.77
2022-12-27T02:57:42.364Z,1.90
2022-12-27T03:00:31.991Z,1.60
2022-12-27T03:03:23.852Z,1.50
2022-12-27T03:06:31.537Z,1.93
2022-12-27T03:09:08.204Z,1.47
2022-12-27T03:12:05.192Z,1.50
2022-12-27T03:14:56.276Z,1.50
2022-12-27T03:17:27.866Z,1.40
2022-12-27T03:20:19.255Z,1.70
2022-12-27T03:23:06.595Z,1.60
2022-12-27T03:25:36.769Z,1.90
2022-12-27T03:28:28.441Z,1.43
2022-12-27T03:31:18.712Z,1.90
2022-12-27T03:33:49.754Z,1.53
2022-12-27T03:36:40.559Z,1.10
2022-12-27T03:39:17.349Z,1.80
2022-12-27T03:42:07.356Z,1.53
2022-12-27T03:44:35.212Z,1.63
2022-12-27T03:47:11.255Z,2.77
2022-12-27T03:49:44.910Z,2.67
2022-12-27T03:52:18.343Z,1.73
2022-12-27T03:54:49.632Z,1.73
2022-12-27T03:57:20.726Z,2.17
2022-12-27T03:59:48.620Z,2.00
2022-12-27T04:02:16.968Z,1.90
2022-12-27T04:04:44.889Z,1.60
2022-12-27T04:07:15.688Z,1.90
2022-12-27T04:10:01.771Z,1.70
2022-12-27T04:12:47.056Z,1.40
2022-12-27T04:15:32.275Z,1.30
2022-12-27T04:18:17.784Z,1.80
2022-12-27T04:21:03.120Z,2.20
2022-12-27T04:23:49.865Z,2.37
2022-12-27T04:26:35.114Z,1.63
2022-12-27T04:29:20.436Z,1.60
2022-12-27T04:32:05.865Z,1.80
2022-12-27T04:34:43.347Z,1.60
2022-12-27T04:37:13.156Z,1.10
2022-12-27T04:40:02.857Z,1.87
2022-12-27T04:42:48.516Z,1.60
2022-12-27T04:45:45.469Z,1.50
2022-12-27T04:48:32.594Z,2.07
2022-12-27T04:51:18.142Z,1.57
2022-12-27T04:54:03.646Z,1.63
2022-12-27T04:56:32.876Z,1.67
2022-12-27T04:59:18.132Z,1.50
2022-12-27T05:02:04.727Z,1.90
2022-12-27T05:04:34.243Z,1.33
2022-12-27T05:07:22.742Z,2.20
2022-12-27T05:10:08.395Z,1.40
2022-12-27T05:12:55.219Z,1.90
2022-12-27T05:15:23.027Z,1.80
2022-12-27T05:17:50.832Z,1.60
2022-12-27T05:20:18.649Z,1.63
2022-12-27T05:23:03.836Z,1.60
2022-12-27T05:25:38.516Z,1.60
2022-12-27T05:28:09.884Z,1.77
2022-12-27T05:30:40.308Z,2.00
2022-12-27T05:33:08.784Z,1.90
2022-12-27T05:35:37.005Z,1.50
2022-12-27T05:38:05.173Z,1.73
2022-12-27T05:40:33.409Z,2.37
2022-12-27T05:43:02.126Z,1.70
2022-12-27T05:45:31.549Z,1.80
2022-12-27T05:48:00.352Z,1.70
2022-12-27T05:50:28.538Z,1.63
2022-12-27T05:52:57.149Z,1.77
2022-12-27T05:55:25.128Z,1.40
2022-12-27T05:57:52.902Z,1.50
2022-12-27T06:00:20.874Z,1.40
2022-12-27T06:02:50.223Z,1.60
2022-12-27T06:05:18.257Z,1.47
2022-12-27T06:07:46.022Z,1.90
2022-12-27T06:10:13.948Z,1.70
2022-12-27T06:12:41.869Z,2.30
2022-12-27T06:15:11.814Z,1.57
2022-12-27T06:17:39.631Z,1.80
2022-12-27T06:20:09.725Z,1.57
2022-12-27T06:22:37.591Z,1.70
2022-12-27T06:25:08.709Z,2.33
2022-12-27T06:27:38.869Z,1.73
2022-12-27T06:30:08.309Z,1.70
2022-12-27T06:32:36.434Z,1.60
2022-12-27T06:35:04.432Z,1.63
2022-12-27T06:37:33.555Z,1.70
2022-12-27T06:40:01.329Z,2.00
2022-12-27T06:42:30.809Z,1.77
2022-12-27T06:44:58.652Z,1.50
2022-12-27T06:47:26.517Z,1.63
2022-12-27T06:49:55.877Z,1.70
2022-12-27T06:52:24.100Z,1.40
2022-12-27T06:54:53.284Z,2.07
2022-12-27T06:57:21.082Z,1.60
2022-12-27T06:59:53.815Z,1.67
2022-12-27T07:02:22.128Z,1.53
2022-12-27T07:04:50.195Z,2.80
2022-12-27T07:07:18.043Z,1.80
2022-12-27T07:09:45.897Z,1.67
2022-12-27T07:12:15.041Z,1.87
2022-12-27T07:14:42.855Z,1.60
2022-12-27T07:17:10.664Z,1.87
2022-12-27T07:19:38.513Z,1.60
2022-12-27T07:22:06.467Z,1.40
2022-12-27T07:24:34.312Z,1.70
2022-12-27T07:27:02.850Z,2.03
2022-12-27T07:29:32.061Z,1.87
2022-12-27T07:31:59.921Z,2.00
2022-12-27T07:34:27.735Z,2.00
2022-12-27T07:36:55.581Z,1.80
2022-12-27T07:39:23.338Z,2.27
2022-12-27T07:41:51.488Z,1.97
2022-12-27T07:44:19.330Z,1.90
2022-12-27T07:46:48.581Z,2.17
2022-12-27T07:49:18.046Z,2.53
2022-12-27T07:51:46.113Z,1.97
2022-12-27T07:54:13.909Z,2.00
2022-12-27T07:56:41.744Z,2.43
2022-12-27T07:59:13.356Z,2.20
2022-12-27T08:01:57.864Z,2.40
2022-12-27T08:04:27.054Z,2.40
2022-12-27T08:07:03.387Z,1.97
2022-12-27T08:09:37.880Z,2.23
2022-12-27T08:12:06.316Z,2.80
2022-12-27T08:14:34.221Z,2.90
2022-12-27T08:17:06.569Z,2.50
2022-12-27T08:19:35.885Z,2.43
2022-12-27T08:22:05.148Z,2.43
2022-12-27T08:24:33.281Z,2.60
2022-12-27T08:27:01.138Z,3.10
2022-12-27T08:29:29.058Z,3.10
2022-12-27T08:31:56.936Z,3.20
2022-12-27T08:34:24.700Z,2.70
2022-12-27T08:36:55.957Z,2.80
2022-12-27T08:39:24.591Z,2.80
2022-12-27T08:41:54.310Z,2.43
2022-12-27T08:44:22.168Z,2.70
2022-12-27T08:46:50.264Z,2.40
2022-12-27T08:49:18.104Z,3.03
2022-12-27T08:51:45.937Z,2.30
2022-12-27T08:54:15.079Z,2.53
2022-12-27T08:56:42.911Z,2.63
2022-12-27T08:59:10.726Z,2.40
2022-12-27T09:01:38.583Z,2.23
2022-12-27T09:04:06.509Z,2.40
2022-12-27T09:06:34.378Z,2.23
2022-12-27T09:09:02.268Z,2.50
2022-12-27T09:11:34.076Z,2.30
2022-12-27T09:14:03.930Z,3.77
2022-12-27T09:16:33.957Z,2.37
2022-12-27T09:19:02.290Z,1.97
2022-12-27T09:21:32.510Z,2.23
2022-12-27T09:24:00.698Z,3.00
2022-12-27T09:26:31.496Z,3.80
2022-12-27T09:29:00.159Z,2.87
2022-12-27T09:31:28.552Z,2.70
2022-12-27T09:33:57.745Z,2.70
2022-12-27T09:36:27.592Z,2.60
2022-12-27T09:38:56.734Z,2.33
2022-12-27T09:42:34.143Z,2.93
2022-12-27T09:44:37.304Z,2.90
2022-12-27T09:47:13.218Z,3.30
2022-12-27T09:49:43.997Z,2.63
2022-12-27T09:52:15.386Z,3.00
2022-12-27T09:54:56.736Z,2.57
2022-12-27T09:57:34.166Z,3.03
2022-12-27T10:00:05.624Z,2.70
2022-12-27T10:02:35.405Z,2.40
2022-12-27T10:05:21.737Z,2.67
2022-12-27T10:08:03.208Z,2.80
2022-12-27T10:10:43.135Z,2.50
2022-12-27T10:13:23.143Z,3.07
2022-12-27T10:15:57.853Z,3.07
2022-12-27T10:18:38.060Z,2.73
2022-12-27T10:21:14.386Z,2.80
2022-12-27T10:23:50.346Z,2.70
2022-12-27T10:26:20.661Z,3.07
2022-12-27T10:28:57.276Z,2.70
2022-12-27T10:31:26.320Z,2.83
2022-12-27T10:33:54.708Z,2.90
2022-12-27T10:36:25.985Z,2.47
2022-12-27T10:38:54.401Z,2.80
2022-12-27T10:41:33.155Z,3.47
2022-12-27T10:44:02.260Z,3.20
2022-12-27T10:46:33.276Z,2.93
2022-12-27T10:51:52.509Z,3.03
2022-12-27T10:54:23.791Z,3.37
2022-12-27T10:56:52.317Z,3.00
2022-12-27T10:59:23.081Z,3.00
2022-12-27T11:02:08.617Z,3.20
2022-12-27T11:04:36.501Z,3.20
2022-12-27T11:07:19.232Z,3.10
2022-12-27T11:09:51.034Z,3.50
2022-12-27T11:12:21.648Z,3.70
2022-12-27T11:14:59.202Z,3.90
2022-12-27T11:17:30.097Z,3.97
2022-12-27T11:19:59.151Z,3.50
2022-12-27T11:22:27.847Z,3.70
2022-12-27T11:24:59.510Z,4.20
2022-12-27T11:27:29.275Z,3.40
2022-12-27T11:30:00.607Z,3.93
2022-12-27T11:32:28.581Z,3.83
2022-12-27T11:34:57.574Z,3.70
2022-12-27T11:37:28.082Z,3.50
2022-12-27T11:40:11.417Z,3.70
2022-12-27T11:42:44.134Z,3.60
2022-12-27T11:45:21.545Z,3.73
2022-12-27T11:47:54.977Z,3.83
2022-12-27T11:50:52.537Z,3.63
2022-12-27T11:53:55.795Z,3.60
2022-12-27T11:56:27.351Z,3.73
2022-12-27T11:59:22.224Z,3.80
2022-12-27T12:02:15.458Z,3.57
2022-12-27T12:05:21.458Z,3.97
2022-12-27T12:08:05.012Z,3.73
2022-12-27T12:10:45.984Z,4.43
2022-12-27T12:13:43.367Z,3.57
2022-12-27T12:16:40.709Z,3.77
2022-12-27T12:19:20.288Z,3.50
2022-12-27T12:22:03.557Z,3.73
2022-12-27T12:24:49.685Z,3.33
2022-12-27T12:27:42.098Z,3.40
2022-12-27T12:30:27.289Z,4.03
2022-12-27T12:33:23.273Z,3.57
2022-12-27T12:36:10.663Z,3.17
2022-12-27T12:38:45.989Z,3.80
2022-12-27T12:41:52.940Z,3.33
2022-12-27T12:44:41.935Z,5.27
2022-12-27T12:47:23.052Z,4.73
2022-12-27T12:50:13.632Z,3.23
2022-12-27T12:52:57.128Z,3.40
2022-12-27T12:55:38.621Z,3.40
2022-12-27T12:58:27.351Z,3.30
2022-12-27T13:01:14.045Z,3.27
2022-12-27T13:03:58.130Z,3.20
2022-12-27T13:07:15.132Z,3.57
2022-12-27T13:09:56.529Z,3.33
2022-12-27T13:12:32.934Z,3.60
2022-12-27T13:15:21.869Z,3.30
2022-12-27T13:18:04.402Z,2.90
2022-12-27T13:21:01.516Z,2.90
2022-12-27T13:23:41.599Z,3.70
2022-12-27T13:26:20.664Z,3.53
2022-12-27T13:28:59.638Z,3.10
2022-12-27T13:31:36.648Z,3.57
2022-12-27T13:34:20.415Z,2.77
2022-12-27T13:37:11.699Z,2.87
2022-12-27T13:39:50.353Z,3.00
2022-12-27T13:42:40.384Z,3.33
2022-12-27T13:45:22.805Z,3.57
2022-12-27T13:48:17.135Z,3.27
2022-12-27T13:51:02.419Z,3.90
2022-12-27T13:53:45.132Z,3.70
2022-12-27T13:56:52.596Z,3.80
2022-12-27T13:59:45.240Z,3.63
2022-12-27T14:02:50.513Z,3.43
2022-12-27T14:05:46.068Z,3.50
2022-12-27T14:08:26.561Z,3.37
2022-12-27T14:11:00.719Z,3.40
2022-12-27T14:13:34.576Z,3.47
2022-12-27T14:16:33.398Z,3.23
2022-12-27T14:19:24.454Z,3.63
2022-12-27T14:22:23.033Z,3.80
2022-12-27T14:25:39.701Z,4.07
2022-12-27T14:28:41.672Z,3.90
2022-12-27T14:32:18.440Z,4.13
2022-12-27T14:35:25.904Z,4.60
2022-12-27T14:38:18.288Z,4.30
2022-12-27T14:41:11.055Z,4.50
2022-12-27T14:44:30.861Z,4.17
2022-12-27T14:47:31.829Z,4.37
2022-12-27T14:50:44.129Z,5.53
2022-12-27T14:53:57.808Z,5.43
2022-12-27T14:56:33.811Z,5.80
2022-12-27T14:59:25.859Z,6.10
2022-12-27T15:02:04.819Z,5.80
2022-12-27T15:05:06.596Z,6.00
2022-12-27T15:08:05.974Z,5.30
2022-12-27T15:10:51.047Z,5.80
2022-12-27T15:13:27.201Z,5.80
2022-12-27T15:16:03.429Z,5.23
2022-12-27T15:18:44.124Z,5.03
2022-12-27T15:21:23.197Z,5.43
2022-12-27T15:23:54.548Z,4.63
2022-12-27T15:26:33.151Z,4.20
2022-12-27T15:29:17.658Z,4.50
2022-12-27T15:31:57.145Z,4.13
2022-12-27T15:34:38.459Z,4.40
2022-12-27T15:37:29.140Z,4.10
2022-12-27T15:39:57.795Z,4.23
2022-12-27T15:42:48.541Z,4.00
2022-12-27T15:45:30.402Z,4.70
2022-12-27T15:48:21.183Z,3.83
2022-12-27T15:50:58.105Z,3.87
2022-12-27T15:53:37.910Z,5.70
2022-12-27T15:56:33.038Z,3.93
2022-12-27T15:59:37.911Z,4.53
2022-12-27T16:02:32.665Z,4.20
2022-12-27T16:05:11.885Z,4.83
2022-12-27T16:07:46.428Z,4.00
2022-12-27T16:13:51.460Z,4.50
2022-12-27T16:16:52.401Z,4.53
2022-12-27T16:19:47.817Z,4.17
2022-12-27T16:22:28.458Z,4.90
2022-12-27T16:24:57.365Z,4.20
2022-12-27T16:27:31.224Z,4.97
2022-12-27T16:30:01.007Z,4.50
2022-12-27T16:32:29.330Z,5.13
2022-12-27T16:35:13.590Z,3.80
2022-12-27T16:37:45.707Z,3.97
2022-12-27T16:40:30.209Z,3.87
2022-12-27T16:43:33.210Z,3.70
2022-12-27T16:46:18.325Z,4.10
2022-12-27T16:49:03.155Z,4.30
2022-12-27T16:51:40.527Z,4.13
2022-12-27T16:54:23.453Z,3.90
2022-12-27T16:56:51.331Z,4.03
2022-12-27T16:59:56.392Z,4.27
2022-12-27T17:02:40.914Z,4.60
2022-12-27T17:05:34.076Z,4.00
2022-12-27T17:08:20.125Z,3.60
2022-12-27T17:11:00.383Z,4.00
2022-12-27T17:13:54.111Z,3.97
2022-12-27T17:16:24.207Z,4.47
2022-12-27T17:18:57.848Z,4.03
2022-12-27T17:21:30.612Z,4.30
2022-12-27T17:24:02.566Z,3.13
2022-12-27T17:26:53.300Z,3.53
2022-12-27T17:29:57.731Z,3.60
2022-12-27T17:32:37.909Z,3.10
2022-12-27T17:35:14.621Z,3.77
2022-12-27T17:37:58.237Z,3.30
2022-12-27T17:40:34.820Z,3.47
2022-12-27T17:43:32.513Z,3.57
2022-12-27T17:46:16.047Z,3.27
2022-12-27T17:48:44.171Z,3.60
2022-12-27T17:51:16.621Z,3.53
2022-12-27T17:54:06.389Z,3.00
2022-12-27T17:57:01.305Z,3.90
2022-12-27T17:59:30.957Z,3.63
2022-12-27T18:02:04.622Z,3.20
2022-12-27T18:04:35.753Z,4.00
2022-12-27T18:07:08.455Z,4.30
2022-12-27T18:09:39.743Z,3.60
2022-12-27T18:12:15.546Z,4.00
2022-12-27T18:14:44.218Z,3.80
2022-12-27T18:17:28.692Z,3.97
2022-12-27T18:19:57.335Z,3.90
2022-12-27T18:22:27.738Z,4.13
2022-12-27T18:24:55.505Z,3.63
2022-12-27T18:27:25.865Z,4.13
2022-12-27T18:29:53.740Z,4.30
2022-12-27T18:32:23.423Z,3.80
2022-12-27T18:34:55.646Z,3.60
2022-12-27T18:37:26.470Z,4.77
2022-12-27T18:39:56.812Z,3.37
2022-12-27T18:42:30.822Z,3.83
2022-12-27T18:45:01.981Z,3.50
2022-12-27T18:47:30.221Z,3.43
2022-12-27T18:50:01.153Z,3.50
2022-12-27T18:52:34.977Z,3.03
2022-12-27T18:55:14.017Z,3.60
2022-12-27T18:57:41.854Z,3.70
2022-12-27T19:00:22.782Z,3.40
2022-12-27T19:02:51.709Z,3.57
2022-12-27T19:05:30.591Z,3.53
2022-12-27T19:08:10.484Z,3.90
2022-12-27T19:10:41.326Z,3.77
2022-12-27T19:13:22.883Z,6.00
2022-12-27T19:15:51.887Z,3.83
2022-12-27T19:18:26.452Z,3.90
2022-12-27T19:20:58.077Z,3.83
2022-12-27T19:23:31.262Z,4.50
2022-12-27T19:26:02.931Z,4.50
2022-12-27T19:28:32.039Z,4.60
2022-12-27T19:31:16.217Z,4.13
2022-12-27T19:33:46.337Z,5.40
2022-12-27T19:36:14.772Z,4.20
2022-12-27T19:38:47.958Z,4.17
2022-12-27T19:41:16.298Z,4.53
2022-12-27T19:43:46.687Z,4.67
2022-12-27T19:46:15.695Z,4.50
2022-12-27T19:48:43.903Z,4.50
2022-12-27T19:51:15.913Z,4.00
2022-12-27T19:53:55.412Z,4.50
2022-12-27T19:56:25.934Z,4.00
2022-12-27T19:58:53.792Z,4.30
2022-12-27T20:01:21.662Z,4.53
2022-12-27T20:03:49.512Z,3.20
2022-12-27T20:06:18.929Z,4.00
2022-12-27T20:08:53.281Z,3.63
2022-12-27T20:11:23.288Z,4.00
2022-12-27T20:13:51.364Z,3.70
2022-12-27T20:16:20.997Z,3.80
2022-12-27T20:18:48.873Z,3.80
2022-12-27T20:21:18.435Z,4.00
2022-12-27T20:23:46.788Z,3.60
2022-12-27T20:26:19.880Z,4.37
2022-12-27T20:28:48.287Z,3.90
2022-12-27T20:31:17.702Z,3.50
2022-12-27T20:33:45.916Z,4.13
2022-12-27T20:36:13.859Z,3.57
2022-12-27T20:38:41.688Z,3.20
2022-12-27T20:41:11.029Z,3.77
2022-12-27T20:43:40.432Z,3.60
2022-12-27T20:46:09.969Z,3.57
2022-12-27T20:48:39.017Z,3.70
2022-12-27T20:51:08.393Z,3.43
2022-12-27T20:53:36.630Z,3.20
2022-12-27T20:56:05.861Z,3.40
2022-12-27T20:58:34.203Z,3.60
2022-12-27T21:01:08.634Z,3.73
2022-12-27T21:03:37.093Z,3.47
2022-12-27T21:06:09.735Z,3.90
2022-12-27T21:08:45.428Z,3.40
2022-12-27T21:11:17.643Z,3.70
2022-12-27T21:13:45.941Z,3.43
2022-12-27T21:16:17.734Z,3.33
2022-12-27T21:18:45.626Z,4.13
2022-12-27T21:21:18.990Z,3.60
2022-12-27T21:23:47.803Z,3.57
2022-12-27T21:26:17.923Z,3.57
2022-12-27T21:28:46.495Z,3.33
2022-12-27T21:31:17.096Z,4.03
2022-12-27T21:33:45.524Z,3.80
2022-12-27T21:36:15.465Z,3.67
2022-12-27T21:38:43.653Z,3.67
2022-12-27T21:41:13.819Z,3.70
2022-12-27T21:43:42.049Z,3.90
2022-12-27T21:46:12.983Z,4.40
2022-12-27T21:48:43.117Z,3.57
2022-12-27T21:51:13.458Z,3.90
2022-12-27T21:53:41.737Z,4.00
2022-12-27T21:56:10.951Z,4.60
2022-12-27T21:58:40.141Z,4.30
2022-12-27T22:01:11.680Z,4.40
2022-12-27T22:03:43.217Z,4.00
2022-12-27T22:06:12.666Z,4.17
2022-12-27T22:08:40.802Z,4.10
2022-12-27T22:11:09.175Z,4.10
2022-12-27T22:13:37.377Z,4.00
2022-12-27T22:16:08.470Z,4.20
2022-12-27T22:18:37.835Z,4.43
2022-12-27T22:21:08.641Z,4.10
2022-12-27T22:23:38.327Z,4.50
2022-12-27T22:26:09.940Z,4.27
2022-12-27T22:28:37.744Z,4.17
2022-12-27T22:31:07.165Z,4.57
2022-12-27T22:33:36.349Z,4.60
2022-12-27T22:36:06.897Z,4.13
2022-12-27T22:38:36.645Z,4.83
2022-12-27T22:41:06.300Z,5.10
2022-12-27T22:43:34.201Z,4.57
2022-12-27T22:46:05.528Z,4.23
2022-12-27T22:48:33.398Z,4.27
2022-12-27T22:51:08.888Z,4.00
2022-12-27T22:53:36.956Z,4.90
2022-12-27T22:56:04.940Z,5.00
2022-12-27T22:58:32.870Z,5.10
2022-12-27T23:01:00.695Z,5.37
2022-12-27T23:03:28.652Z,4.60
2022-12-27T23:06:00.387Z,5.03
2022-12-27T23:08:29.795Z,4.57
2022-12-27T23:11:03.416Z,4.87
2022-12-27T23:13:32.841Z,4.60
2022-12-27T23:16:02.485Z,4.73
2022-12-27T23:18:31.084Z,5.17
2022-12-27T23:21:21.773Z,5.37
2022-12-27T23:23:48.796Z,5.47
2022-12-27T23:26:18.332Z,5.00
2022-12-27T23:28:47.422Z,5.27
2022-12-27T23:31:15.897Z,4.93
2022-12-27T23:33:44.850Z,4.47
2022-12-27T23:36:14.120Z,4.70
2022-12-27T23:38:42.485Z,5.00
2022-12-27T23:41:15.481Z,5.07
2022-12-27T23:43:52.620Z,5.10
2022-12-27T23:46:23.666Z,5.13
2022-12-27T23:48:52.491Z,5.13
2022-12-27T23:51:21.079Z,5.00
2022-12-27T23:53:49.027Z,4.57
2022-12-27T23:56:20.238Z,5.40
2022-12-27T23:58:48.645Z,4.83
